Time;durP1;ratioP1;P1;durP2;ratioP2;P2;SDS_P1;SDS_P2;PMS_P1;PMS_P2;Temp;Humidity;BMP_temperature;BMP_pressure;BME280_temperature;BME280_humidity;BME280_pressure;Samples;Min_cycle;Max_cycle;Signal;HPM_P1;HPM_P2
2021/10/21 00:01:43;;;;;;;3.43;0.60;;;;;;;;;;4986247;28;20201;-79
2021/10/21 00:04:10;;;;;;;5.23;0.80;;;;;;;;;;4976422;28;20293;-79
2021/10/21 00:06:39;;;;;;;2.63;0.80;;;;;;;;;;4982965;28;20234;-79
2021/10/21 00:09:06;;;;;;;5.73;1.00;;;;;;;;;;4987673;28;20297;-80
2021/10/21 00:11:33;;;;;;;5.17;1.07;;;;;;;;;;4984771;28;20206;-80
2021/10/21 00:14:01;;;;;;;4.47;0.70;;;;;;;;;;4992822;28;20427;-79
2021/10/21 00:16:28;;;;;;;6.13;1.10;;;;;;;;;;4992551;28;20289;-79
2021/10/21 00:18:56;;;;;;;3.97;0.90;;;;;;;;;;4992498;28;20198;-79
2021/10/21 00:21:23;;;;;;;3.20;0.90;;;;;;;;;;4992533;28;20289;-80
2021/10/21 00:23:51;;;;;;;4.70;0.70;;;;;;;;;;4979993;28;20290;-80
2021/10/21 00:26:19;;;;;;;4.10;0.80;;;;;;;;;;4992270;28;20284;-80
2021/10/21 00:28:46;;;;;;;5.73;0.83;;;;;;;;;;4982477;28;20237;-81
2021/10/21 00:31:14;;;;;;;3.97;0.97;;;;;;;;;;4980437;28;20198;-80
2021/10/21 00:33:41;;;;;;;4.47;1.00;;;;;;;;;;4991827;28;20225;-80
2021/10/21 00:36:08;;;;;;;5.83;0.70;;;;;;;;;;4985401;28;20284;-80
2021/10/21 00:38:36;;;;;;;2.97;0.73;;;;;;;;;;4991929;28;20225;-80
2021/10/21 00:41:04;;;;;;;4.93;0.77;;;;;;;;;;4992371;28;20287;-79
2021/10/21 00:43:36;;;;;;;7.13;1.10;;;;;;;;;;4992565;28;20563;-80
2021/10/21 00:46:04;;;;;;;3.93;0.90;;;;;;;;;;4992387;28;20296;-79
2021/10/21 00:48:31;;;;;;;3.77;0.60;;;;;;;;;;4992442;28;20316;-80
2021/10/21 00:50:59;;;;;;;5.87;0.63;;;;;;;;;;4991954;28;20296;-80
2021/10/21 00:53:26;;;;;;;4.93;1.00;;;;;;;;;;4985642;28;21624;-78
2021/10/21 00:55:53;;;;;;;3.90;0.90;;;;;;;;;;4977149;28;20653;-79
2021/10/21 00:58:22;;;;;;;4.50;0.80;;;;;;;;;;4989409;28;20642;-79
2021/10/21 01:00:49;;;;;;;7.50;1.00;;;;;;;;;;4977449;28;20623;-79
2021/10/21 01:03:17;;;;;;;5.77;0.93;;;;;;;;;;4991051;28;20656;-79
2021/10/21 01:05:44;;;;;;;3.30;0.93;;;;;;;;;;4985959;28;20286;-79
2021/10/21 01:08:11;;;;;;;6.13;1.00;;;;;;;;;;4977160;28;20264;-79
2021/10/21 01:10:38;;;;;;;4.70;0.90;;;;;;;;;;4990271;28;20285;-79
2021/10/21 01:13:06;;;;;;;6.40;0.70;;;;;;;;;;4991481;28;20202;-79
2021/10/21 01:15:34;;;;;;;4.20;0.87;;;;;;;;;;4991705;28;20202;-79
2021/10/21 01:18:01;;;;;;;6.33;1.03;;;;;;;;;;4991726;28;20229;-79
2021/10/21 01:20:30;;;;;;;5.27;0.60;;;;;;;;;;4991615;28;20260;-79
2021/10/21 01:22:57;;;;;;;4.30;1.00;;;;;;;;;;4991857;28;20251;-79
2021/10/21 01:25:25;;;;;;;5.13;1.00;;;;;;;;;;4973054;28;20237;-79
2021/10/21 01:27:52;;;;;;;6.33;1.00;;;;;;;;;;4972598;28;20658;-79
2021/10/21 01:30:20;;;;;;;7.73;1.10;;;;;;;;;;4972097;28;20669;-79
2021/10/21 01:32:47;;;;;;;6.33;1.03;;;;;;;;;;4972454;28;20238;-79
2021/10/21 01:35:15;;;;;;;4.70;1.10;;;;;;;;;;4988894;28;20297;-80
2021/10/21 01:37:43;;;;;;;8.43;1.73;;;;;;;;;;4991794;28;20335;-79
2021/10/21 01:40:11;;;;;;;6.97;1.43;;;;;;;;;;4983042;28;20241;-80
2021/10/21 01:42:39;;;;;;;7.07;0.90;;;;;;;;;;4988925;28;20255;-79
2021/10/21 01:45:14;;;;;;;7.60;1.40;;;;;;;;;;4989021;28;20245;-79
2021/10/21 01:47:42;;;;;;;6.47;1.43;;;;;;;;;;4977938;28;20209;-79
2021/10/21 01:50:09;;;;;;;7.60;1.60;;;;;;;;;;4985555;28;20314;-79
2021/10/21 01:52:36;;;;;;;14.07;1.67;;;;;;;;;;4971834;28;20242;-80
2021/10/21 01:55:05;;;;;;;5.23;1.37;;;;;;;;;;4975050;28;20233;-79
2021/10/21 01:57:33;;;;;;;9.60;1.83;;;;;;;;;;4983671;28;20209;-80
2021/10/21 02:00:00;;;;;;;7.60;1.30;;;;;;;;;;4971845;28;20294;-79
2021/10/21 02:02:27;;;;;;;11.07;1.97;;;;;;;;;;4981350;28;20250;-79
2021/10/21 02:04:54;;;;;;;10.27;1.43;;;;;;;;;;4971953;28;20245;-80
2021/10/21 02:07:21;;;;;;;12.17;1.97;;;;;;;;;;4977028;28;20236;-79
2021/10/21 02:09:49;;;;;;;8.23;1.47;;;;;;;;;;4970474;28;20318;-79
2021/10/21 02:12:17;;;;;;;8.37;1.37;;;;;;;;;;4978473;28;20657;-79
2021/10/21 02:14:44;;;;;;;8.03;1.83;;;;;;;;;;4970933;28;20688;-79
2021/10/21 02:17:11;;;;;;;13.87;2.03;;;;;;;;;;4971807;28;20241;-79
2021/10/21 02:19:39;;;;;;;8.53;1.97;;;;;;;;;;4971385;28;20290;-79
2021/10/21 02:22:06;;;;;;;14.90;2.00;;;;;;;;;;4973767;28;20697;-79
2021/10/21 02:24:34;;;;;;;8.57;1.90;;;;;;;;;;4982096;28;20244;-80
2021/10/21 02:27:01;;;;;;;12.03;2.03;;;;;;;;;;4990838;28;20248;-79
2021/10/21 02:29:29;;;;;;;7.97;1.70;;;;;;;;;;4989731;28;20316;-80
2021/10/21 02:31:57;;;;;;;12.87;2.03;;;;;;;;;;4976626;28;20294;-79
2021/10/21 02:34:24;;;;;;;11.57;2.10;;;;;;;;;;4981503;28;20285;-80
2021/10/21 02:36:51;;;;;;;9.80;1.77;;;;;;;;;;4972268;28;20209;-80
2021/10/21 02:39:18;;;;;;;9.53;2.03;;;;;;;;;;4971591;28;20294;-80
2021/10/21 02:41:45;;;;;;;12.83;2.57;;;;;;;;;;4988436;28;20292;-80
2021/10/21 02:44:12;;;;;;;11.10;2.10;;;;;;;;;;4975035;28;20289;-79
2021/10/21 02:46:41;;;;;;;11.77;2.00;;;;;;;;;;4971270;28;20234;-80
2021/10/21 02:49:08;;;;;;;8.17;1.67;;;;;;;;;;4990218;28;20312;-80
2021/10/21 02:51:35;;;;;;;9.33;1.93;;;;;;;;;;4977286;28;20284;-80
2021/10/21 02:54:02;;;;;;;13.53;2.30;;;;;;;;;;4989919;28;20244;-80
2021/10/21 02:56:30;;;;;;;9.37;2.10;;;;;;;;;;4984637;28;20205;-80
2021/10/21 02:58:57;;;;;;;12.47;2.40;;;;;;;;;;4970317;28;20229;-80
2021/10/21 03:01:24;;;;;;;11.60;2.13;;;;;;;;;;4973410;28;20241;-80
2021/10/21 03:03:52;;;;;;;13.03;2.00;;;;;;;;;;4990259;28;20288;-79
2021/10/21 03:06:20;;;;;;;10.93;1.70;;;;;;;;;;4986480;28;20290;-79
2021/10/21 03:08:47;;;;;;;11.97;2.23;;;;;;;;;;4970696;28;20320;-80
2021/10/21 03:11:14;;;;;;;9.77;2.40;;;;;;;;;;4970477;28;20738;-80
2021/10/21 03:13:41;;;;;;;8.87;2.00;;;;;;;;;;4970224;28;20217;-80
2021/10/21 03:16:08;;;;;;;15.73;2.30;;;;;;;;;;4970409;28;20293;-80
2021/10/21 03:18:36;;;;;;;12.27;2.43;;;;;;;;;;4970841;28;20206;-80
2021/10/21 03:21:04;;;;;;;12.83;2.13;;;;;;;;;;4979174;28;20235;-80
2021/10/21 03:23:31;;;;;;;9.90;2.00;;;;;;;;;;4989401;28;20292;-80
2021/10/21 03:25:58;;;;;;;16.60;2.37;;;;;;;;;;4989632;28;20237;-80
2021/10/21 03:28:26;;;;;;;13.40;2.13;;;;;;;;;;4972672;28;20202;-80
2021/10/21 03:30:53;;;;;;;11.10;2.20;;;;;;;;;;4970432;28;20254;-80
2021/10/21 03:33:20;;;;;;;8.23;1.87;;;;;;;;;;4974745;28;20392;-80
2021/10/21 03:35:47;;;;;;;9.57;2.30;;;;;;;;;;4989722;28;20256;-80
2021/10/21 03:38:16;;;;;;;13.93;2.17;;;;;;;;;;4988830;28;20236;-80
2021/10/21 03:40:43;;;;;;;12.13;2.40;;;;;;;;;;4988647;28;20312;-80
2021/10/21 03:43:10;;;;;;;12.27;2.20;;;;;;;;;;4989165;28;20239;-80
2021/10/21 03:45:37;;;;;;;11.80;2.37;;;;;;;;;;4980463;28;20198;-80
2021/10/21 03:48:05;;;;;;;8.27;2.30;;;;;;;;;;4989451;28;20296;-79
2021/10/21 03:50:32;;;;;;;10.17;2.57;;;;;;;;;;4989231;28;20345;-80
2021/10/21 03:52:59;;;;;;;11.83;2.40;;;;;;;;;;4989751;28;20244;-79
2021/10/21 03:55:28;;;;;;;11.27;2.53;;;;;;;;;;4978144;28;20210;-80
2021/10/21 03:57:55;;;;;;;10.67;2.90;;;;;;;;;;4970152;28;20212;-80
2021/10/21 04:00:22;;;;;;;10.67;3.40;;;;;;;;;;4978748;28;20291;-80
2021/10/21 04:02:50;;;;;;;12.27;2.83;;;;;;;;;;4989295;28;20227;-80
2021/10/21 04:05:17;;;;;;;19.50;3.30;;;;;;;;;;4984587;28;20229;-80
2021/10/21 04:07:44;;;;;;;14.23;3.07;;;;;;;;;;4970837;28;20734;-80
2021/10/21 04:10:11;;;;;;;6.60;2.70;;;;;;;;;;4985224;28;20257;-80
2021/10/21 04:12:40;;;;;;;16.53;3.10;;;;;;;;;;4989066;28;20201;-79
2021/10/21 04:15:07;;;;;;;14.70;3.60;;;;;;;;;;4986955;28;20234;-80
2021/10/21 04:17:34;;;;;;;15.80;3.40;;;;;;;;;;4970027;28;20237;-80
2021/10/21 04:20:02;;;;;;;13.00;4.77;;;;;;;;;;4970009;28;20198;-80
2021/10/21 04:22:29;;;;;;;11.77;4.27;;;;;;;;;;4969586;28;20236;-80
2021/10/21 04:24:56;;;;;;;15.03;4.50;;;;;;;;;;4972508;28;20244;-80
2021/10/21 04:27:23;;;;;;;12.80;4.50;;;;;;;;;;4969892;28;20569;-81
2021/10/21 04:29:52;;;;;;;16.50;4.77;;;;;;;;;;4977600;28;20233;-80
2021/10/21 04:32:19;;;;;;;9.00;3.90;;;;;;;;;;4986776;28;20285;-80
2021/10/21 04:34:46;;;;;;;11.13;3.40;;;;;;;;;;4991548;28;20201;-80
2021/10/21 04:37:13;;;;;;;16.77;3.80;;;;;;;;;;4992292;28;20730;-80
2021/10/21 04:39:41;;;;;;;14.67;3.53;;;;;;;;;;4991384;28;20341;-80
2021/10/21 04:42:08;;;;;;;11.50;2.70;;;;;;;;;;4992320;28;20204;-79
2021/10/21 04:44:35;;;;;;;12.67;2.80;;;;;;;;;;4992006;28;20296;-80
2021/10/21 04:47:04;;;;;;;10.90;1.93;;;;;;;;;;4991596;28;20241;-80
2021/10/21 04:49:31;;;;;;;13.30;3.20;;;;;;;;;;4987563;28;20259;-81
2021/10/21 04:51:58;;;;;;;12.33;2.53;;;;;;;;;;4991377;28;20229;-81
2021/10/21 04:54:25;;;;;;;10.40;2.30;;;;;;;;;;4991802;28;20280;-80
2021/10/21 04:56:53;;;;;;;16.73;2.87;;;;;;;;;;4983923;28;20738;-81
2021/10/21 04:59:20;;;;;;;12.20;2.40;;;;;;;;;;4982345;28;20283;-79
2021/10/21 05:01:47;;;;;;;14.17;2.70;;;;;;;;;;4978042;28;20313;-77
2021/10/21 05:04:15;;;;;;;13.43;2.60;;;;;;;;;;4980336;28;20256;-78
2021/10/21 05:06:43;;;;;;;10.00;2.50;;;;;;;;;;4984390;28;20762;-77
2021/10/21 05:09:10;;;;;;;11.90;2.30;;;;;;;;;;4985291;28;20202;-77
2021/10/21 05:11:37;;;;;;;11.20;2.33;;;;;;;;;;4985110;28;20293;-77
2021/10/21 05:14:04;;;;;;;12.23;2.80;;;;;;;;;;4991411;28;20293;-77
2021/10/21 05:16:31;;;;;;;19.23;2.70;;;;;;;;;;4991616;28;20286;-74
2021/10/21 05:18:58;;;;;;;12.17;2.30;;;;;;;;;;4985188;28;20286;-77
2021/10/21 05:21:27;;;;;;;14.20;2.83;;;;;;;;;;4980038;28;20281;-77
2021/10/21 05:23:54;;;;;;;15.47;2.97;;;;;;;;;;4990976;28;20712;-77
2021/10/21 05:26:21;;;;;;;15.13;2.80;;;;;;;;;;4983124;28;20250;-76
2021/10/21 05:28:48;;;;;;;13.63;2.43;;;;;;;;;;4986373;28;20229;-76
2021/10/21 05:31:16;;;;;;;12.23;3.50;;;;;;;;;;4987110;28;20236;-77
2021/10/21 05:33:43;;;;;;;12.67;2.87;;;;;;;;;;4988366;28;20292;-77
2021/10/21 05:36:10;;;;;;;14.27;2.50;;;;;;;;;;4980953;28;20295;-77
2021/10/21 05:38:38;;;;;;;10.27;2.67;;;;;;;;;;4980261;28;20218;-78
2021/10/21 05:41:06;;;;;;;9.57;2.60;;;;;;;;;;4978718;28;20299;-79
2021/10/21 05:43:33;;;;;;;13.27;2.87;;;;;;;;;;4971329;28;20286;-80
2021/10/21 05:46:00;;;;;;;12.67;2.53;;;;;;;;;;4988701;28;20751;-78
2021/10/21 05:48:28;;;;;;;12.70;3.07;;;;;;;;;;4988701;28;20242;-78
2021/10/21 05:50:55;;;;;;;11.60;2.27;;;;;;;;;;4989620;28;20246;-78
2021/10/21 05:53:22;;;;;;;15.23;2.30;;;;;;;;;;4989864;28;20284;-78
2021/10/21 05:55:51;;;;;;;12.47;2.30;;;;;;;;;;4990816;28;20238;-78
2021/10/21 05:58:18;;;;;;;8.10;2.70;;;;;;;;;;4991267;28;20287;-78
2021/10/21 06:00:45;;;;;;;10.53;2.67;;;;;;;;;;4990675;28;20211;-78
2021/10/21 06:03:13;;;;;;;11.50;2.47;;;;;;;;;;4977100;28;20272;-78
2021/10/21 06:05:40;;;;;;;15.00;2.37;;;;;;;;;;4986350;28;20272;-78
2021/10/21 06:08:07;;;;;;;13.33;3.30;;;;;;;;;;4991117;28;20248;-78
2021/10/21 06:10:34;;;;;;;15.93;3.43;;;;;;;;;;4990758;28;20662;-78
2021/10/21 06:13:05;;;;;;;12.87;4.17;;;;;;;;;;4990687;28;20595;-78
2021/10/21 06:15:32;;;;;;;14.63;3.90;;;;;;;;;;4990422;28;20686;-78
2021/10/21 06:18:03;;;;;;;14.40;3.27;;;;;;;;;;4977508;28;20285;-78
2021/10/21 06:20:30;;;;;;;13.23;3.00;;;;;;;;;;4971298;28;20243;-78
2021/10/21 06:22:57;;;;;;;12.90;2.70;;;;;;;;;;4981229;28;20280;-77
2021/10/21 06:25:24;;;;;;;16.13;2.97;;;;;;;;;;4990450;28;20287;-78
2021/10/21 06:27:51;;;;;;;15.43;2.70;;;;;;;;;;4990213;28;20206;-77
2021/10/21 06:30:20;;;;;;;13.37;2.70;;;;;;;;;;4973042;28;20255;-78
2021/10/21 06:32:47;;;;;;;15.40;2.50;;;;;;;;;;4974058;28;20293;-78
2021/10/21 06:35:15;;;;;;;16.17;2.53;;;;;;;;;;4990515;28;20307;-78
2021/10/21 06:37:43;;;;;;;16.83;3.00;;;;;;;;;;4990537;28;20206;-78
2021/10/21 06:40:12;;;;;;;14.63;2.73;;;;;;;;;;4990514;28;20238;-78
2021/10/21 06:42:39;;;;;;;12.33;3.00;;;;;;;;;;4990082;28;20283;-78
2021/10/21 06:45:07;;;;;;;11.17;2.70;;;;;;;;;;4973597;28;20298;-78
2021/10/21 06:47:36;;;;;;;13.23;2.93;;;;;;;;;;4970956;28;20242;-78
2021/10/21 06:50:03;;;;;;;13.70;2.70;;;;;;;;;;4974524;28;20328;-77
2021/10/21 06:52:30;;;;;;;11.43;2.47;;;;;;;;;;4990323;28;20244;-77
2021/10/21 06:54:57;;;;;;;14.03;3.47;;;;;;;;;;4989350;28;20286;-78
2021/10/21 06:57:24;;;;;;;11.60;2.83;;;;;;;;;;4989872;28;20296;-78
2021/10/21 06:59:52;;;;;;;15.27;2.73;;;;;;;;;;4990157;28;20233;-78
2021/10/21 07:02:19;;;;;;;11.07;2.77;;;;;;;;;;4990435;28;20225;-77
2021/10/21 07:04:47;;;;;;;11.47;2.50;;;;;;;;;;4989715;28;20250;-78
2021/10/21 07:07:14;;;;;;;11.73;2.50;;;;;;;;;;4990202;28;20237;-78
2021/10/21 07:09:42;;;;;;;13.33;2.40;;;;;;;;;;4989874;28;20308;-75
2021/10/21 07:12:09;;;;;;;14.77;2.80;;;;;;;;;;4987268;28;20216;-78
2021/10/21 07:14:36;;;;;;;9.43;2.13;;;;;;;;;;4970959;28;20238;-78
2021/10/21 07:17:03;;;;;;;17.90;2.60;;;;;;;;;;4970292;28;20243;-78
2021/10/21 07:19:30;;;;;;;10.37;2.10;;;;;;;;;;4970072;28;20217;-78
2021/10/21 07:21:59;;;;;;;18.37;2.63;;;;;;;;;;4970190;28;20251;-78
2021/10/21 07:24:27;;;;;;;13.53;2.57;;;;;;;;;;4970263;28;20750;-78
2021/10/21 07:26:55;;;;;;;14.33;2.60;;;;;;;;;;4970191;28;20203;-77
2021/10/21 07:29:22;;;;;;;12.17;2.00;;;;;;;;;;4979339;28;20285;-78
2021/10/21 07:31:49;;;;;;;9.30;1.93;;;;;;;;;;4989418;28;20750;-78
2021/10/21 07:34:16;;;;;;;11.37;2.10;;;;;;;;;;4989284;28;20300;-78
2021/10/21 07:36:43;;;;;;;12.13;2.27;;;;;;;;;;4989508;28;20206;-78
2021/10/21 07:39:12;;;;;;;12.30;2.13;;;;;;;;;;4989121;28;20233;-78
2021/10/21 07:41:39;;;;;;;9.63;1.83;;;;;;;;;;4989674;28;20209;-78
2021/10/21 07:44:06;;;;;;;11.13;2.03;;;;;;;;;;4989614;28;20296;-78
2021/10/21 07:46:34;;;;;;;10.83;2.20;;;;;;;;;;4989402;28;20713;-78
2021/10/21 07:49:02;;;;;;;9.87;2.03;;;;;;;;;;4988974;28;20201;-78
2021/10/21 07:51:31;;;;;;;12.47;1.90;;;;;;;;;;4989688;28;20316;-78
2021/10/21 07:53:59;;;;;;;12.43;2.17;;;;;;;;;;4989241;28;20226;-78
2021/10/21 07:56:28;;;;;;;12.30;1.93;;;;;;;;;;4989754;28;20336;-78
2021/10/21 07:58:55;;;;;;;15.07;2.50;;;;;;;;;;4986923;28;20628;-77
2021/10/21 08:01:22;;;;;;;13.43;2.27;;;;;;;;;;4970446;28;20285;-77
2021/10/21 08:03:49;;;;;;;9.33;2.50;;;;;;;;;;4969835;28;20317;-78
2021/10/21 08:06:16;;;;;;;13.73;2.30;;;;;;;;;;4969880;28;20241;-77
2021/10/21 08:08:43;;;;;;;13.03;2.10;;;;;;;;;;4973369;28;20234;-77
2021/10/21 08:11:11;;;;;;;11.27;1.93;;;;;;;;;;4973253;28;20262;-77
2021/10/21 08:13:39;;;;;;;8.83;2.03;;;;;;;;;;4982055;28;20202;-77
2021/10/21 08:16:06;;;;;;;9.60;2.30;;;;;;;;;;4992186;28;20284;-77
2021/10/21 08:18:34;;;;;;;11.13;2.37;;;;;;;;;;4992751;28;20293;-77
2021/10/21 08:21:02;;;;;;;13.93;2.20;;;;;;;;;;4992358;28;20206;-78
2021/10/21 08:23:29;;;;;;;13.70;2.47;;;;;;;;;;4991799;28;20691;-78
2021/10/21 08:25:56;;;;;;;12.37;2.13;;;;;;;;;;4992588;28;20298;-78
2021/10/21 08:28:24;;;;;;;12.10;2.20;;;;;;;;;;4992336;28;20291;-78
2021/10/21 08:30:52;;;;;;;16.20;2.33;;;;;;;;;;4991882;28;20716;-78
2021/10/21 08:33:19;;;;;;;12.53;2.30;;;;;;;;;;4992320;28;20252;-78
2021/10/21 08:35:46;;;;;;;15.37;2.50;;;;;;;;;;4991977;28;20259;-77
2021/10/21 08:38:14;;;;;;;12.70;2.40;;;;;;;;;;4992151;28;20643;-78
2021/10/21 08:40:41;;;;;;;14.07;2.30;;;;;;;;;;4992125;28;20265;-77
2021/10/21 08:43:08;;;;;;;11.83;2.10;;;;;;;;;;4992222;28;20237;-78
2021/10/21 08:45:36;;;;;;;14.57;2.50;;;;;;;;;;4988866;28;20858;-78
2021/10/21 08:48:05;;;;;;;9.03;1.80;;;;;;;;;;4972823;28;20301;-78
2021/10/21 08:50:34;;;;;;;14.07;2.17;;;;;;;;;;4972693;28;20206;-78
2021/10/21 08:53:01;;;;;;;14.30;2.03;;;;;;;;;;4972657;28;20235;-78
2021/10/21 08:55:29;;;;;;;9.37;1.83;;;;;;;;;;4985070;28;20292;-77
2021/10/21 08:57:56;;;;;;;14.37;2.43;;;;;;;;;;4992273;28;20237;-77
2021/10/21 09:00:24;;;;;;;9.47;2.73;;;;;;;;;;4991754;28;20260;-78
2021/10/21 09:02:54;;;;;;;19.87;2.60;;;;;;;;;;4992124;28;20218;-78
2021/10/21 09:05:32;;;;;;;21.17;3.37;;;;;;;;;;4991629;28;20206;-78
2021/10/21 09:08:10;;;;;;;13.00;2.37;;;;;;;;;;4991652;28;20211;-77
2021/10/21 09:10:52;;;;;;;14.17;2.50;;;;;;;;;;4988546;28;20255;-78
2021/10/21 09:13:21;;;;;;;15.30;2.93;;;;;;;;;;4972113;28;20202;-78
2021/10/21 09:15:49;;;;;;;14.53;2.77;;;;;;;;;;4971932;28;20537;-78
2021/10/21 09:18:17;;;;;;;12.97;1.90;;;;;;;;;;4971754;28;20203;-78
2021/10/21 09:20:46;;;;;;;11.97;1.93;;;;;;;;;;4972537;28;20271;-78
2021/10/21 09:23:16;;;;;;;18.50;2.67;;;;;;;;;;4972170;28;20210;-78
2021/10/21 09:25:44;;;;;;;15.30;2.30;;;;;;;;;;4982708;28;20202;-78
2021/10/21 09:28:22;;;;;;;11.17;2.10;;;;;;;;;;4991827;28;20240;-77
2021/10/21 09:30:54;;;;;;;11.70;2.43;;;;;;;;;;4991277;28;20265;-77
2021/10/21 09:33:21;;;;;;;14.37;2.10;;;;;;;;;;4986752;28;20755;-78
2021/10/21 09:35:53;;;;;;;10.87;2.37;;;;;;;;;;4991016;28;20293;-78
2021/10/21 09:38:21;;;;;;;14.07;2.83;;;;;;;;;;4991434;28;20202;-78
2021/10/21 09:40:48;;;;;;;10.37;2.10;;;;;;;;;;4991172;28;20282;-77
2021/10/21 09:43:15;;;;;;;11.60;2.00;;;;;;;;;;4991368;28;20233;-78
2021/10/21 09:45:44;;;;;;;13.77;2.37;;;;;;;;;;4990972;28;20198;-78
2021/10/21 09:48:22;;;;;;;12.53;2.37;;;;;;;;;;4991383;28;20205;-77
2021/10/21 09:50:49;;;;;;;13.00;2.53;;;;;;;;;;4991426;28;20250;-77
2021/10/21 09:53:20;;;;;;;10.20;2.20;;;;;;;;;;4991401;28;20245;-78
2021/10/21 09:55:48;;;;;;;11.37;2.23;;;;;;;;;;4990917;28;20210;-78
2021/10/21 09:58:17;;;;;;;13.53;2.23;;;;;;;;;;4986145;28;20286;-78
2021/10/21 10:00:45;;;;;;;10.83;2.20;;;;;;;;;;4981545;28;20233;-77
2021/10/21 10:03:16;;;;;;;10.80;2.00;;;;;;;;;;4991311;28;20570;-77
2021/10/21 10:05:44;;;;;;;13.83;1.90;;;;;;;;;;4990963;28;20296;-78
2021/10/21 10:08:12;;;;;;;9.70;2.13;;;;;;;;;;4991200;28;20730;-78
2021/10/21 10:10:42;;;;;;;13.33;2.47;;;;;;;;;;4990899;28;20205;-78
2021/10/21 10:13:10;;;;;;;11.70;2.50;;;;;;;;;;4976584;28;20260;-78
2021/10/21 10:15:39;;;;;;;14.30;2.33;;;;;;;;;;4971524;28;20286;-78
2021/10/21 10:18:07;;;;;;;11.77;2.97;;;;;;;;;;4975283;28;20221;-78
2021/10/21 10:20:34;;;;;;;12.90;2.60;;;;;;;;;;4990708;28;20237;-78
2021/10/21 10:23:04;;;;;;;17.57;2.57;;;;;;;;;;4974139;28;20229;-78
2021/10/21 10:25:32;;;;;;;38.27;19.27;;;;;;;;;;4990958;28;20224;-78
2021/10/21 10:28:01;;;;;;;16.33;7.90;;;;;;;;;;4990533;28;20284;-78
2021/10/21 10:30:42;;;;;;;12.07;2.23;;;;;;;;;;4986191;28;20290;-78
2021/10/21 10:33:09;;;;;;;12.03;2.37;;;;;;;;;;4990285;28;20261;-78
2021/10/21 10:35:39;;;;;;;13.67;2.10;;;;;;;;;;4990249;28;20205;-78
2021/10/21 10:38:06;;;;;;;8.27;2.13;;;;;;;;;;4990769;28;20254;-77
2021/10/21 10:40:42;;;;;;;9.57;1.90;;;;;;;;;;4989546;28;20312;-77
2021/10/21 10:43:11;;;;;;;10.93;2.00;;;;;;;;;;4973466;28;20252;-78
2021/10/21 10:45:43;;;;;;;8.13;1.63;;;;;;;;;;4989989;28;20289;-78
2021/10/21 10:48:11;;;;;;;8.17;1.93;;;;;;;;;;4990588;28;20198;-77
2021/10/21 10:50:52;;;;;;;9.37;1.90;;;;;;;;;;4990051;28;20202;-78
2021/10/21 10:53:39;;;;;;;10.50;2.00;;;;;;;;;;4990294;28;20664;-77
2021/10/21 10:56:07;;;;;;;10.17;1.90;;;;;;;;;;4990263;28;20206;-77
2021/10/21 10:58:35;;;;;;;8.30;2.13;;;;;;;;;;4989912;28;20292;-78
2021/10/21 11:01:02;;;;;;;10.90;2.67;;;;;;;;;;4990345;28;20288;-78
2021/10/21 11:03:31;;;;;;;12.63;2.30;;;;;;;;;;4974750;28;20254;-78
2021/10/21 11:05:59;;;;;;;10.90;2.30;;;;;;;;;;4990306;28;20233;-78
2021/10/21 11:08:45;;;;;;;9.77;1.90;;;;;;;;;;4990274;28;20554;-78
2021/10/21 11:11:20;;;;;;;10.50;2.10;;;;;;;;;;4989922;28;20206;-78
2021/10/21 11:13:49;;;;;;;8.73;1.73;;;;;;;;;;4990420;28;20244;-78
2021/10/21 11:16:34;;;;;;;8.47;1.43;;;;;;;;;;4990653;28;20301;-78
2021/10/21 11:19:01;;;;;;;7.50;1.70;;;;;;;;;;4988576;28;20292;-78
2021/10/21 11:21:48;;;;;;;6.10;1.57;;;;;;;;;;4990059;28;20293;-78
2021/10/21 11:24:49;;;;;;;8.13;2.03;;;;;;;;;;4990467;28;20593;-78
2021/10/21 11:27:17;;;;;;;7.73;1.93;;;;;;;;;;4911008;28;20702;-78
2021/10/21 11:29:47;;;;;;;5.33;1.87;;;;;;;;;;4910904;29;20771;-78
2021/10/21 11:32:15;;;;;;;6.93;2.17;;;;;;;;;;4910756;29;20760;-77
2021/10/21 11:34:42;;;;;;;5.87;1.47;;;;;;;;;;4914763;29;20248;-77
2021/10/21 11:37:09;;;;;;;5.27;1.40;;;;;;;;;;4910759;29;20204;-77
2021/10/21 11:39:38;;;;;;;7.57;1.40;;;;;;;;;;4910108;29;20326;-78
2021/10/21 11:42:05;;;;;;;7.23;1.50;;;;;;;;;;4932155;28;20236;-78
2021/10/21 11:44:33;;;;;;;6.33;1.53;;;;;;;;;;5016495;28;20684;-79
2021/10/21 11:47:02;;;;;;;5.70;1.80;;;;;;;;;;4972473;28;20291;-79
2021/10/21 11:49:30;;;;;;;7.93;2.70;;;;;;;;;;4953418;28;20283;-79
2021/10/21 11:52:03;;;;;;;7.10;2.23;;;;;;;;;;5012882;28;20675;-79
2021/10/21 11:54:30;;;;;;;9.63;2.00;;;;;;;;;;4933256;28;20216;-79
2021/10/21 11:56:58;;;;;;;7.73;1.40;;;;;;;;;;4916644;28;20299;-79
2021/10/21 11:59:35;;;;;;;6.87;1.47;;;;;;;;;;4988867;28;20206;-80
2021/10/21 12:02:12;;;;;;;5.07;1.17;;;;;;;;;;4995700;28;20266;-79
2021/10/21 12:04:39;;;;;;;3.07;0.63;;;;;;;;;;4985017;28;20206;-80
2021/10/21 12:07:07;;;;;;;1.80;0.40;;;;;;;;;;4988737;28;20289;-79
2021/10/21 12:09:35;;;;;;;3.80;0.70;;;;;;;;;;4982905;28;20282;-78
2021/10/21 12:12:02;;;;;;;1.43;0.40;;;;;;;;;;4994372;28;20275;-79
2021/10/21 12:14:30;;;;;;;2.87;0.33;;;;;;;;;;4986244;28;20198;-79
2021/10/21 12:16:58;;;;;;;3.53;0.70;;;;;;;;;;4984478;28;20229;-79
2021/10/21 12:19:29;;;;;;;1.63;0.40;;;;;;;;;;4989430;28;20198;-79
2021/10/21 12:22:04;;;;;;;2.27;0.37;;;;;;;;;;4981316;28;20202;-79
2021/10/21 12:24:31;;;;;;;1.57;0.30;;;;;;;;;;4987248;28;20201;-79
2021/10/21 12:27:00;;;;;;;1.47;0.40;;;;;;;;;;4993922;28;20300;-79
2021/10/21 12:29:32;;;;;;;2.53;0.80;;;;;;;;;;4977037;28;20533;-79
2021/10/21 12:32:00;;;;;;;3.27;0.50;;;;;;;;;;4995235;28;20241;-80
2021/10/21 12:34:29;;;;;;;4.03;0.60;;;;;;;;;;4994235;28;20681;-79
2021/10/21 12:36:56;;;;;;;4.05;0.60;;;;;;;;;;4986751;28;20297;-79
2021/10/21 12:39:25;;;;;;;8.90;0.73;;;;;;;;;;4987790;28;20297;-80
2021/10/21 12:41:54;;;;;;;1.73;0.50;;;;;;;;;;4981645;28;20206;-80
2021/10/21 12:44:22;;;;;;;4.28;0.52;;;;;;;;;;4991935;28;20293;-79
2021/10/21 12:46:50;;;;;;;3.42;0.55;;;;;;;;;;4976344;28;20238;-80
2021/10/21 12:49:18;;;;;;;3.17;0.60;;;;;;;;;;4985772;28;20233;-79
2021/10/21 12:51:48;;;;;;;2.97;1.00;;;;;;;;;;4979920;28;20289;-80
2021/10/21 12:54:25;;;;;;;2.45;0.60;;;;;;;;;;4985451;28;20298;-80
2021/10/21 12:56:56;;;;;;;1.95;0.45;;;;;;;;;;4991898;28;20289;-80
2021/10/21 12:59:24;;;;;;;4.80;0.70;;;;;;;;;;4990546;28;20205;-79
2021/10/21 13:01:59;;;;;;;2.78;0.60;;;;;;;;;;4977231;28;20250;-79
2021/10/21 13:04:39;;;;;;;4.07;1.15;;;;;;;;;;4973000;28;20275;-79
2021/10/21 13:07:08;;;;;;;7.03;0.90;;;;;;;;;;4987306;28;20233;-79
2021/10/21 13:09:36;;;;;;;3.85;0.75;;;;;;;;;;4977896;28;20284;-80
2021/10/21 13:12:04;;;;;;;4.20;1.17;;;;;;;;;;4986585;28;20249;-80
2021/10/21 13:14:33;;;;;;;2.67;0.55;;;;;;;;;;4985930;28;20248;-79
2021/10/21 13:17:01;;;;;;;2.70;0.68;;;;;;;;;;4978755;28;20203;-78
2021/10/21 13:19:28;;;;;;;3.77;0.70;;;;;;;;;;4988462;28;20202;-79
2021/10/21 13:21:55;;;;;;;2.17;0.70;;;;;;;;;;4976720;28;20715;-79
2021/10/21 13:24:24;;;;;;;2.10;0.50;;;;;;;;;;4984090;28;20286;-78
2021/10/21 13:26:51;;;;;;;2.50;0.85;;;;;;;;;;4984089;28;20237;-78
2021/10/21 13:29:19;;;;;;;5.18;0.93;;;;;;;;;;4977829;28;20206;-78
2021/10/21 13:31:46;;;;;;;5.68;0.95;;;;;;;;;;4986858;28;20252;-78
2021/10/21 13:34:13;;;;;;;3.30;0.68;;;;;;;;;;4985618;28;20198;-78
2021/10/21 13:36:40;;;;;;;11.90;1.20;;;;;;;;;;4980799;28;20216;-78
2021/10/21 13:39:08;;;;;;;5.80;1.10;;;;;;;;;;4983665;28;20285;-78
2021/10/21 13:41:37;;;;;;;4.57;1.00;;;;;;;;;;4974381;28;20297;-78
2021/10/21 13:44:04;;;;;;;5.25;0.98;;;;;;;;;;4979300;28;20203;-78
2021/10/21 13:46:32;;;;;;;8.45;1.33;;;;;;;;;;4973869;28;20249;-79
2021/10/21 13:48:59;;;;;;;6.28;1.17;;;;;;;;;;4987938;28;20260;-78
2021/10/21 13:51:26;;;;;;;5.40;1.27;;;;;;;;;;4978387;28;20202;-78
2021/10/21 13:53:54;;;;;;;8.15;1.30;;;;;;;;;;4990230;28;20314;-79
2021/10/21 13:56:21;;;;;;;6.05;1.10;;;;;;;;;;4985844;28;20584;-79
2021/10/21 13:58:49;;;;;;;4.00;0.82;;;;;;;;;;4989435;28;20244;-79
2021/10/21 14:01:23;;;;;;;4.85;1.08;;;;;;;;;;4984833;28;20233;-79
2021/10/21 14:03:50;;;;;;;6.70;1.20;;;;;;;;;;4990106;28;20194;-79
2021/10/21 14:06:18;;;;;;;7.13;1.30;;;;;;;;;;4971013;28;20264;-79
2021/10/21 14:08:46;;;;;;;7.53;1.50;;;;;;;;;;4971541;28;20288;-78
2021/10/21 14:11:13;;;;;;;5.53;1.08;;;;;;;;;;4983368;28;20654;-78
2021/10/21 14:13:41;;;;;;;6.78;1.23;;;;;;;;;;4972373;28;20313;-78
2021/10/21 14:16:10;;;;;;;7.03;1.20;;;;;;;;;;4988526;28;20290;-78
2021/10/21 14:18:38;;;;;;;4.85;0.80;;;;;;;;;;4975158;28;20669;-78
2021/10/21 14:21:05;;;;;;;7.47;1.27;;;;;;;;;;4987964;28;20233;-78
2021/10/21 14:23:32;;;;;;;7.88;1.10;;;;;;;;;;4987594;28;20286;-79
2021/10/21 14:26:00;;;;;;;4.13;1.00;;;;;;;;;;4980947;28;20284;-78
2021/10/21 14:28:27;;;;;;;8.15;1.00;;;;;;;;;;4976018;28;20198;-79
2021/10/21 14:30:55;;;;;;;4.95;1.05;;;;;;;;;;4990051;28;20267;-78
2021/10/21 14:33:23;;;;;;;7.30;1.20;;;;;;;;;;4982868;28;20595;-78
2021/10/21 14:35:51;;;;;;;6.38;1.00;;;;;;;;;;4990243;28;20645;-78
2021/10/21 14:38:18;;;;;;;3.97;0.90;;;;;;;;;;4984699;28;20210;-78
2021/10/21 14:40:46;;;;;;;5.05;0.95;;;;;;;;;;4978729;28;20270;-78
2021/10/21 14:43:13;;;;;;;4.68;0.80;;;;;;;;;;4979008;28;20202;-78